MSC Bettina — HPFG — position and weather

sailwx.info

Track history (hours):
 
Tides and Currents Weather Stations Pressure Air Temp Water Temp Dewpoint Dewpoint Depression Visibility Wind Speed Wind Dir Waves Ship Positions

MSC Bettina

Last reported at 2017-May-19 01:39 UTC. Time now 2017-May-26 15:01 UTC.
Position N 02°02' E 102°10'.

Length 366 m; draft 14.5 m.

Type: Ship (hazmat cat A). MMSI: 352361000.

Date/timePositionNaut miles runAvg speedWind from/ knotsBaromVisibWave heightAir tempDewpointWater temp
2017-May-19 01:39N 02°02' E 102°10'420.5
2017-May-19 01:28N 01°60' E 102°13'1020.4
2017-May-19 01:00N 01°55' E 102°21'1020.7
2017-May-19 00:30N 01°50' E 102°30'1020.9
2017-May-19 00:00N 01°45' E 102°39'4619.8
2017-May-18 21:41N 01°19' E 103°17'420.3
2017-May-18 21:30N 01°17' E 103°20'919.2
2017-May-18 21:00N 01°13' E 103°29'816.5
2017-May-18 20:31N 01°12' E 103°37'4 8.9
2017-May-18 20:00N 01°13' E 103°41'5 9.7
2017-May-18 19:29N 01°16' E 103°45'1 1.1
2017-May-18 19:00N 01°16' E 103°46'0 0.3
2017-May-18 18:30N 01°16' E 103°46'0 0.0
2017-May-18 17:58N 01°16' E 103°46'0 0.0
2017-May-18 17:28N 01°16' E 103°46'0 0.0
2017-May-18 16:55N 01°16' E 103°46'0 0.0
2017-May-18 16:28N 01°16' E 103°46'0 0.0
2017-May-18 15:58N 01°16' E 103°46'0 0.0
2017-May-18 15:28N 01°16' E 103°46'0 0.0
2017-May-18 14:58N 01°16' E 103°46'0 0.0
2017-May-18 14:22N 01°16' E 103°46'0 0.0
2017-May-18 13:22N 01°16' E 103°46'0 0.0
2017-May-18 12:58N 01°16' E 103°46'0 0.0
2017-May-18 12:25N 01°16' E 103°46'0 0.0
2017-May-18 11:58N 01°16' E 103°46'0 0.0
2017-May-18 11:25N 01°16' E 103°46'0 0.0
2017-May-18 10:55N 01°16' E 103°46'0 0.0
2017-May-18 10:28N 01°16' E 103°46'0 0.0
2017-May-18 09:55N 01°16' E 103°46'0 0.0
2017-May-18 09:28N 01°16' E 103°46'0 0.0
2017-May-18 08:58N 01°16' E 103°46'0 0.0
2017-May-18 08:28N 01°16' E 103°46'0 0.0
2017-May-18 07:58N 01°16' E 103°46'0 0.0
2017-May-18 07:28N 01°16' E 103°46'0 0.0
2017-May-18 06:46N 01°16' E 103°46'0 0.0
2017-May-18 06:28N 01°16' E 103°46'0 0.0
2017-May-18 05:55N 01°16' E 103°46'0 0.0
2017-May-18 05:28N 01°16' E 103°46'0 0.0
2017-May-18 04:58N 01°16' E 103°46'0 0.0
2017-May-18 04:25N 01°16' E 103°46'0 0.0
2017-May-18 03:58N 01°16' E 103°46'0 0.0
2017-May-18 03:28N 01°16' E 103°46'0 0.0
2017-May-18 02:58N 01°16' E 103°46'0 0.0
2017-May-18 02:28N 01°16' E 103°46'0 0.0
2017-May-18 01:55N 01°16' E 103°46'0 0.0
2017-May-18 01:28N 01°16' E 103°46'0 0.0
2017-May-18 00:55N 01°16' E 103°46'0 0.0
2017-May-18 00:28N 01°16' E 103°46'0 0.0
2017-May-17 23:58N 01°16' E 103°46'0 0.0
2017-May-17 23:28N 01°16' E 103°46'0 0.0
2017-May-17 22:58N 01°16' E 103°46'0 0.0
2017-May-17 22:28N 01°16' E 103°46'0 0.0
2017-May-17 21:58N 01°16' E 103°46'0 0.0
2017-May-17 21:28N 01°16' E 103°46'0 0.0
2017-May-17 20:52N 01°16' E 103°46'0 0.0
2017-May-17 20:28N 01°16' E 103°46'0 0.0
2017-May-17 19:58N 01°16' E 103°46'0 0.0
2017-May-17 19:28N 01°16' E 103°46'0 0.0
2017-May-17 18:58N 01°16' E 103°46'0 0.0
2017-May-17 18:24N 01°16' E 103°46'0 0.0
2017-May-17 18:00N 01°16' E 103°46'0 0.0
2017-May-17 17:27N 01°16' E 103°46'0 0.0
2017-May-17 16:57N 01°16' E 103°46'0 0.0
2017-May-17 16:24N 01°16' E 103°46'0 0.0
2017-May-17 15:57N 01°16' E 103°46'0 0.0
2017-May-17 15:27N 01°16' E 103°46'0 0.2
2017-May-17 15:00N 01°16' E 103°46'4 4.4
2017-May-17 14:00N 01°13' E 103°48'510.9
2017-May-17 13:31N 01°13' E 103°54'5 9.4
2017-May-17 13:00N 01°15' E 103°58'5 9.1
2017-May-17 12:30N 01°16' E 104°03'612.5
2017-May-17 11:59N 01°17' E 104°09'  
2017-May-11 05:27N 23°40' E 118°01'920.7
2017-May-11 05:00N 23°47' E 118°08'1020.6
2017-May-11 04:30N 23°55' E 118°15'1019.9
2017-May-11 03:59N 24°04' E 118°19'917.8
2017-May-11 03:30N 24°13' E 118°17'713.5
2017-May-11 03:00N 24°18' E 118°13'510.5
2017-May-11 02:30N 24°22' E 118°09'4 7.2
2017-May-11 02:00N 24°24' E 118°06'5 9.8
2017-May-11 01:30N 24°26' E 118°01'0 0.5
2017-May-11 01:00N 24°27' E 118°01'0 0.0
2017-May-11 00:29N 24°27' E 118°01'0 0.0
2017-May-10 23:59N 24°27' E 118°01'0 0.0
2017-May-10 23:29N 24°27' E 118°01'0 0.0
2017-May-10 22:59N 24°27' E 118°01'0 0.0
2017-May-10 22:29N 24°27' E 118°01'0 0.0
2017-May-10 21:56N 24°27' E 118°01'0 0.0
2017-May-10 21:26N 24°27' E 118°01'0 0.0
2017-May-10 20:56N 24°27' E 118°01'0 0.0
2017-May-10 20:26N 24°27' E 118°01'0 0.0
2017-May-10 19:59N 24°27' E 118°01'0 0.0
2017-May-10 19:29N 24°27' E 118°01'0 0.0
2017-May-10 18:59N 24°27' E 118°01'0 0.0
2017-May-10 18:23N 24°27' E 118°01'0 0.0
2017-May-10 17:56N 24°27' E 118°01'0 0.0
2017-May-10 17:29N 24°27' E 118°01'0 0.0
2017-May-10 16:59N 24°27' E 118°01'0 0.0
2017-May-10 16:29N 24°27' E 118°01'0 0.0
2017-May-10 15:59N 24°27' E 118°01'0 0.0
2017-May-10 15:26N 24°27' E 118°01'0 0.0
2017-May-10 14:59N 24°27' E 118°01'0 0.0
2017-May-10 14:00N 24°27' E 118°01'2 4.2
2017-May-10 13:31N 24°26' E 118°03'612.2
2017-May-10 13:00N 24°22' E 118°08'814.7
2017-May-10 12:30N 24°16' E 118°14'4716.3
2017-May-10 09:35N 24°33' E 119°03'  
Track history (hours):
 
Tides and Currents Weather Stations Pressure Air Temp Water Temp Dewpoint Dewpoint Depression Visibility Wind Speed Wind Dir Waves Ship Positions

MSC Bettina

Last reported at 2017-May-19 01:39 UTC. Time now 2017-May-26 15:01 UTC.
Position N 02°02' E 102°10'.

Length 366 m; draft 14.5 m.

Type: Ship (hazmat cat A). MMSI: 352361000.

Date/timePositionNaut miles runAvg speedWind from/ knotsBaromVisibWave heightAir tempDewpointWater temp
2017-May-19 01:39N 02°02' E 102°10'420.5
2017-May-19 01:28N 01°60' E 102°13'1020.4
2017-May-19 01:00N 01°55' E 102°21'1020.7
2017-May-19 00:30N 01°50' E 102°30'1020.9
2017-May-19 00:00N 01°45' E 102°39'4619.8
2017-May-18 21:41N 01°19' E 103°17'420.3
2017-May-18 21:30N 01°17' E 103°20'919.2
2017-May-18 21:00N 01°13' E 103°29'816.5
2017-May-18 20:31N 01°12' E 103°37'4 8.9
2017-May-18 20:00N 01°13' E 103°41'5 9.7
2017-May-18 19:29N 01°16' E 103°45'1 1.1
2017-May-18 19:00N 01°16' E 103°46'0 0.3
2017-May-18 18:30N 01°16' E 103°46'0 0.0
2017-May-18 17:58N 01°16' E 103°46'0 0.0
2017-May-18 17:28N 01°16' E 103°46'0 0.0
2017-May-18 16:55N 01°16' E 103°46'0 0.0
2017-May-18 16:28N 01°16' E 103°46'0 0.0
2017-May-18 15:58N 01°16' E 103°46'0 0.0
2017-May-18 15:28N 01°16' E 103°46'0 0.0
2017-May-18 14:58N 01°16' E 103°46'0 0.0
2017-May-18 14:22N 01°16' E 103°46'0 0.0
2017-May-18 13:22N 01°16' E 103°46'0 0.0
2017-May-18 12:58N 01°16' E 103°46'0 0.0
2017-May-18 12:25N 01°16' E 103°46'0 0.0
2017-May-18 11:58N 01°16' E 103°46'0 0.0
2017-May-18 11:25N 01°16' E 103°46'0 0.0
2017-May-18 10:55N 01°16' E 103°46'0 0.0
2017-May-18 10:28N 01°16' E 103°46'0 0.0
2017-May-18 09:55N 01°16' E 103°46'0 0.0
2017-May-18 09:28N 01°16' E 103°46'0 0.0
2017-May-18 08:58N 01°16' E 103°46'0 0.0
2017-May-18 08:28N 01°16' E 103°46'0 0.0
2017-May-18 07:58N 01°16' E 103°46'0 0.0
2017-May-18 07:28N 01°16' E 103°46'0 0.0
2017-May-18 06:46N 01°16' E 103°46'0 0.0
2017-May-18 06:28N 01°16' E 103°46'0 0.0
2017-May-18 05:55N 01°16' E 103°46'0 0.0
2017-May-18 05:28N 01°16' E 103°46'0 0.0
2017-May-18 04:58N 01°16' E 103°46'0 0.0
2017-May-18 04:25N 01°16' E 103°46'0 0.0
2017-May-18 03:58N 01°16' E 103°46'0 0.0
2017-May-18 03:28N 01°16' E 103°46'0 0.0
2017-May-18 02:58N 01°16' E 103°46'0 0.0
2017-May-18 02:28N 01°16' E 103°46'0 0.0
2017-May-18 01:55N 01°16' E 103°46'0 0.0
2017-May-18 01:28N 01°16' E 103°46'0 0.0
2017-May-18 00:55N 01°16' E 103°46'0 0.0
2017-May-18 00:28N 01°16' E 103°46'0 0.0
2017-May-17 23:58N 01°16' E 103°46'0 0.0
2017-May-17 23:28N 01°16' E 103°46'0 0.0
2017-May-17 22:58N 01°16' E 103°46'0 0.0
2017-May-17 22:28N 01°16' E 103°46'0 0.0
2017-May-17 21:58N 01°16' E 103°46'0 0.0
2017-May-17 21:28N 01°16' E 103°46'0 0.0
2017-May-17 20:52N 01°16' E 103°46'0 0.0
2017-May-17 20:28N 01°16' E 103°46'0 0.0
2017-May-17 19:58N 01°16' E 103°46'0 0.0
2017-May-17 19:28N 01°16' E 103°46'0 0.0
2017-May-17 18:58N 01°16' E 103°46'0 0.0
2017-May-17 18:24N 01°16' E 103°46'0 0.0
2017-May-17 18:00N 01°16' E 103°46'0 0.0
2017-May-17 17:27N 01°16' E 103°46'0 0.0
2017-May-17 16:57N 01°16' E 103°46'0 0.0
2017-May-17 16:24N 01°16' E 103°46'0 0.0
2017-May-17 15:57N 01°16' E 103°46'0 0.0
2017-May-17 15:27N 01°16' E 103°46'0 0.2
2017-May-17 15:00N 01°16' E 103°46'4 4.4
2017-May-17 14:00N 01°13' E 103°48'510.9
2017-May-17 13:31N 01°13' E 103°54'5 9.4
2017-May-17 13:00N 01°15' E 103°58'5 9.1
2017-May-17 12:30N 01°16' E 104°03'612.5
2017-May-17 11:59N 01°17' E 104°09'  
2017-May-11 05:27N 23°40' E 118°01'920.7
2017-May-11 05:00N 23°47' E 118°08'1020.6
2017-May-11 04:30N 23°55' E 118°15'1019.9
2017-May-11 03:59N 24°04' E 118°19'917.8
2017-May-11 03:30N 24°13' E 118°17'713.5
2017-May-11 03:00N 24°18' E 118°13'510.5
2017-May-11 02:30N 24°22' E 118°09'4 7.2
2017-May-11 02:00N 24°24' E 118°06'5 9.8
2017-May-11 01:30N 24°26' E 118°01'0 0.5
2017-May-11 01:00N 24°27' E 118°01'0 0.0
2017-May-11 00:29N 24°27' E 118°01'0 0.0
2017-May-10 23:59N 24°27' E 118°01'0 0.0
2017-May-10 23:29N 24°27' E 118°01'0 0.0
2017-May-10 22:59N 24°27' E 118°01'0 0.0
2017-May-10 22:29N 24°27' E 118°01'0 0.0
2017-May-10 21:56N 24°27' E 118°01'0 0.0
2017-May-10 21:26N 24°27' E 118°01'0 0.0
2017-May-10 20:56N 24°27' E 118°01'0 0.0
2017-May-10 20:26N 24°27' E 118°01'0 0.0
2017-May-10 19:59N 24°27' E 118°01'0 0.0
2017-May-10 19:29N 24°27' E 118°01'0 0.0
2017-May-10 18:59N 24°27' E 118°01'0 0.0
2017-May-10 18:23N 24°27' E 118°01'0 0.0
2017-May-10 17:56N 24°27' E 118°01'0 0.0
2017-May-10 17:29N 24°27' E 118°01'0 0.0
2017-May-10 16:59N 24°27' E 118°01'0 0.0
2017-May-10 16:29N 24°27' E 118°01'0 0.0
2017-May-10 15:59N 24°27' E 118°01'0 0.0
2017-May-10 15:26N 24°27' E 118°01'0 0.0
2017-May-10 14:59N 24°27' E 118°01'0 0.0
2017-May-10 14:00N 24°27' E 118°01'2 4.2
2017-May-10 13:31N 24°26' E 118°03'612.2
2017-May-10 13:00N 24°22' E 118°08'814.7
2017-May-10 12:30N 24°16' E 118°14'4716.3
2017-May-10 09:35N 24°33' E 119°03'  

Dump ship's entire track history